Webcam 1 more information Webcam 1


Webcam 2 more information Webcam 2


altri nostri siti meteo:

TortoretometeolidoSito sul meteo

TortoretometeolidoSito sul meteo

Pomeziameteo 1Sito sul meteo

Pomeziameteo DashboardSito sul meteo

Caput FrigorisSito sul meteo

BarcellonameteoSito sul meteo

MeteoipassiSito sul meteo

ViterbometeoSito sul meteo

CastelnuovovomanometeoSito sul meteo



Nessuna attenzione particolare richiesta.    Non ci sono allerte meteo

Report METAR

   
LIBP - Pescara
Dati ricevuti: 26-05-2018 16:50
Sereno  
Sereno  
   Vento: NE 11.1 km/h
Vento: NE 11.1 km/h
Temperatura: 25°C
P.to Rugiada: 20°C
Umidita: 74%
Barometro: 1018 hPa
Visibilita: oltre 10 km
dettagli cloud: Sereno
LIBP 261450Z 03006KT 350V060 CAVOK 25/20 Q1018
LIRZ - Perugia
Dati ricevuti: 26-05-2018 16:50
Poche nuvole  
Poche nuvole  
   Vento: NE 20.4 km/h
Vento: NE 20.4 km/h
Temperatura: 30°C
P.to Rugiada: 14°C
Umidita: 38%
Barometro: 1017 hPa
Nuvole: Poche nuvole
Visibilita: oltre 10 km
dettagli cloud: Poche nuvole 4000 ft
LIRZ 261450Z 03011KT 9999 FEW040 30/14 Q1017
LIQN - Rieti
Dati ricevuti: 26-05-2018 16:50
Poche nuvole  
Poche nuvole  
   Vento: NE 11.1 km/h
Vento: NE 11.1 km/h
Temperatura: 27°C
Indice di Calore: 28°C
P.to Rugiada: 17°C
Umidita: 54%
Barometro: 1017 hPa
Nuvole: Poche nuvole
Visibilita: oltre 10 km
dettagli cloud: Poche nuvole 5000 ft
LIQN 261450Z 03006KT 9999 FEW050TCU 27/17 Q1017
LIPY - Falconara
Dati ricevuti: 01-01-1970 01:00
DATI Obsoleti
  
  
   Vento: calma
Vento: calma
  

Script sviluppato da  Saratoga-weather.org Adattato per il modello da  Weerstation Leuven

Potete trovare le nostre info meteo anche a:

European Weather Network

Weather Underground

AWEKAS

Citizen Weather Observer Program (CWOP)

HAMweather, WeatherForYou, PWS Weather

Strumentazione usata:

Stazione meteo
Davis VP2

Programma gestore dati meteo
WVIEW

Server per i dati meteo
My Computer

Provider
My provider

Davis VP2

WVIEW

My Computer

My provider